Augusta, Missouri
Current Conditions -  °F | °C
As of 6:15 AM on Friday 21 Nov 2014 (Local Time) from KFYG Reporting Station
Unknown Precip Unknown Precip  
Wind Chill: 20°   Ceiling: Unl
Heat Index: 27°   Visibility: 10mi
Dew Point: 16°   Wind: 6mph
Humidity: 64%   Direction: 110°ESE
Pressure: 30.37"   Gusts: NA
Location:  38.57°N, 90.88°W
Report Text: KFYG 211215Z AUTO 11005KT 10SM UP CLR M03/M09 A3037 RMK AO2
Loading
Personal Weather Stations






























Interactive Weather Map New forecast layout! Learn more

10-Day Weather Forecast

Advertisements
Track Severe Weather on mobile